Terminal Aerodrome Forecast
Issued by NWS Charleston, WV

Current Version | Previous Version | Graphics & Text | Print | Product List | Glossary On
Versions: 1 2 3 4 5 6 7 8 9 10 11 12 13 14 15 16 17 18 19 20 21 22 23 24 25 26
564
FTUS41 KRLX 220546
TAFPKB
TAF
KPKB 220546Z 2206/2306 32006KT P6SM SCT050
     FM220900 VRB03KT 1SM BR SCT001 SCT050
     FM221200 32004KT 5SM BR SCT060
     FM221600 31008KT P6SM BKN060
     FM221900 32008KT 6SM SHRA BKN060
     FM222300 34004KT P6SM BKN060
     FM230200 VRB03KT P6SM SCT070=

USA.gov is the U.S. government's official web portal to all federal, state and local government web resources and services.